Vancouver, WA (98668)

3:29 PM PDT on September 29, 2016 (GMT -0700)
Barberton WB7TFD | | Change Station

Elev 230 ft 45.70 °N, 122.63 °W | Updated 14 seconds ago

Clear
Clear
72.7 °F
Feels Like 77 °F
N
4.7
Wind Variable Wind from NNW
Gusts 5.8 mph

Today
High -- | Low -- °F
--% Chance of Precip.
Yesterday
High -- | Low -- °F
Precip. -- in
Pressure 30.04 in
Visibility 10.0 miles
Clouds Clear
Heat Index 77 °F
Dew Point 49 °F
Humidity 43%
Rainfall 0.00 in
Snow Depth Not available.
7:07 AM 6:53 PM
Waning Crescent, 1% visible
METAR KVUO 292153Z AUTO 35007KT 10SM CLR 21/07 A3004 RMK AO2 SLP173 T02060067
Pressure 30.04 in
Visibility 10.0 miles
Clouds Clear
Heat Index 77 °F
Dew Point 49 °F
Humidity 43%
Rainfall 0.00 in
Snow Depth Not available.
7:07 AM 6:53 PM
Waning Crescent, 1% visible
METAR KVUO 292153Z AUTO 35007KT 10SM CLR 21/07 A3004 RMK AO2 SLP173 T02060067

10-Day Weather Forecast

Almanac

Astronomy

Sep. 29, 2016 Rise Set
Actual Time
Civil Twilight
Nautical Twilight
Astronomical Twilight
Moon
Length of Visible Light
Length of Day
Tomorrow will be .
, % of the Moon is Illuminated

Today's Extremes

State Highs State Lows

Community

WunderPhotos

Upload Photos

1,942,591 photos uploaded!

WunderBlog® & News

Nearby

Air Quality

  Air Quality AQ Index Pollutant
Not available.

Snow Depth

Station Depth Elevation

Earthquake Activity

City Distance Mag. Time & Date
Minimum magnitude displayed is 2.5.

Coastal Water Temperatures

Place Temperature

Stations

Nearby Weather Stations

Station Location Temp. Windchill Dew Point Humidity Wind Precip. Elev Updated Type
                   

Watches & Warnings

There are currently no watches in effect.